NCAR-RAP Real-Time Weather Data

Output produced by METARs form (21 May 2019  11:35 UTC)
found at http://weather.rap.ucar.edu/surface/
 
RJOH 211100Z 24012KT 9999 FEW/// 18/06 Q1006
RJOH 211000Z 25011KT 9999 FEW050 19/06 Q1006
RJOH 210900Z 26010KT 9999 FEW050 SCT300 21/05 Q1005
RJOH 210800Z 28009KT 9999 FEW050 BKN300 22/06 Q1005
RJOH 210700Z 27010KT 230V290 9999 FEW050 BKN300 22/06 Q1005
RJOH 210600Z 27009KT 9999 FEW050 BKN300 22/05 Q1005
RJOH 210500Z 27008KT 9999 FEW050 BKN300 23/06 Q1005
RJOH 210400Z VRB06KT 9999 FEW050 BKN300 23/04 Q1005
RJOH 210300Z 27008KT 230V310 9999 FEW030 23/04 Q1006
RJOH 210200Z 26010KT 9999 FEW030 SCT300 22/08 Q1006
RJOH 210100Z 23009KT 200V270 9999 FEW030 21/10 Q1006
RJOH 210000Z 27007KT 230V300 9999 FEW020 BKN030 BKN300 20/10 Q1006
RJOH 202300Z 23009KT 9999 FEW020 SCT030 BKN300 18/10 Q1006
RJOH 202200Z 23009KT 9999 FEW020 SCT030 BKN300 17/11 Q1006
RJOH 202100Z 25008KT 9999 FEW020 BKN030 16/12 Q1005
RJOH 202000Z 26007KT 9999 FEW020 16/10 Q1005
RJOH 201900Z 27010KT 9999 FEW030 SCT040 17/10 Q1005
RJOH 201800Z 29008KT 260V320 9999 FEW030 BKN040 18/12 Q1004
RJOH 201700Z 25015KT 9999 FEW030 BKN040 BKN/// 18/14 Q1003
RJOH 201600Z 26019KT 9999 FEW015 SCT030 BKN040 18/14 Q1003
RJOH 201500Z 25016KT 9999 FEW008 SCT030 BKN040 18/15 Q1003
RJOH 201400Z 29004KT 9999 -SHRA FEW008 BKN040 BKN060 18/16 Q1003
RJOH 201300Z 26008KT 9999 -SHRA FEW030 BKN040 OVC050 18/16 Q1004
RJOH 201200Z 23004KT 9999 -SHRA FEW006 SCT030 BKN040 19/16 Q1004
RJOH 201100Z 25007KT 6000 SHRA FEW015 BKN030 OVC040 19/17 Q1003
RJOH 201000Z VRB02KT 9999 -SHRA FEW015 BKN040 OVC070 20/17 Q1002
RJOH 200900Z 25006KT 9999 -SHRA FEW008 BKN040 OVC070 20/17 Q1002
RJOH 200800Z 25004KT 9999 -SHRA FEW015 BKN040 OVC070 20/17 Q1003
RJOH 200700Z 18012KT 9999 -SHRA FEW020 SCT030 OVC040 23/15 Q1003
RJOH 200600Z 18012KT 9999 FEW020 BKN040 BKN100 25/13 Q1003
RJOH 200500Z 19014KT 9999 FEW020 BKN040 BKN100 25/13 Q1003
RJOH 200400Z 19013KT 160V220 9999 FEW020 BKN040 BKN100 26/13 Q1003
RJOH 200300Z 17014KT 130V190 9999 FEW020 BKN040 BKN100 25/13 Q1004
RJOH 200200Z 17011KT 120V200 9999 FEW020 BKN035 BKN100 24/13 Q1005
RJOH 200100Z 17015KT 9999 -SHRA FEW020 BKN035 BKN100 23/14 Q1005
RJOH 200000Z 18010KT 9999 FEW020 SCT035 BKN100 23/14 Q1005
RJOH 192300Z 16020G32KT 9999 -SHRA FEW020 BKN035 BKN100 20/14 Q1006
RJOH 192200Z 16018G28KT 9999 FEW025 SCT035 BKN100 22/12 Q1007
RJOH 192100Z 16015G26KT 9999 FEW020 SCT100 BKN220 21/11 Q1007
RJOH 192000Z 14008KT 9999 FEW050 BKN090 BKN130 20/11 Q1007
RJOH 191900Z 15012KT 9999 FEW030 BKN090 BKN120 20/10 Q1008
RJOH 191800Z 17004KT 140V220 9999 FEW030 BKN120 20/11 Q1009
RJOH 191700Z 16015G30KT 9999 -SHRA FEW030 SCT080 BKN120 20/11 Q1009
RJOH 191600Z 16020G34KT 9999 -SHRA FEW030 BKN080 BKN120 20/11 Q1010
RJOH 191500Z 16013G23KT 9999 -SHRA FEW030 BKN090 BKN120 21/11 Q1011
RJOH 191400Z 16007KT 9999 FEW050 SCT090 BKN120 22/08 Q1011
RJOH 191300Z 16018G29KT 9999 FEW050 BKN090 BKN120 23/08 Q1012
RJOH 191200Z 17016KT 9999 FEW030 BKN120 22/09 Q1012
RJOH 191100Z 16014KT 9999 FEW030 SCT040 BKN120 22/10 Q1011
RJOH 191000Z 16017G29KT 9999 -SHRA FEW030 SCT040 BKN120 23/10 Q1011
RJOH 190900Z 16017G27KT 9999 -SHRA FEW030 SCT040 BKN150 23/10 Q1012
RJOH 190800Z 16016KT 9999 FEW050 SCT170 BKN300 25/10 Q1012
RJOH 190700Z 15016KT 9999 FEW050 SCT170 BKN300 26/10 Q1012
RJOH 190600Z 16016KT 9999 FEW050 BKN300 28/11 Q1012
RJOH 190500Z 15017KT 9999 FEW050 BKN300 28/10 Q1013
RJOH 190400Z 15018KT 9999 FEW050 BKN300 27/10 Q1013
RJOH 190300Z 16018KT 120V190 9999 FEW050 BKN300 28/09 Q1013
RJOH 190200Z 16019G29KT 9999 FEW050 BKN300 27/09 Q1014
RJOH 190100Z 16017KT 9999 FEW050 BKN300 25/09 Q1014
RJOH 190000Z 16018KT 9999 FEW050 BKN300 24/10 Q1014